sensor_id;sensor_type;location;lat;lon;timestamp;P1;durP1;ratioP1;P2;durP2;ratioP2
30519;SDS011;17300;50.374;8.006;2023-08-06T00:00:57;3.13;;;1.80;;
30519;SDS011;17300;50.374;8.006;2023-08-06T00:03:24;2.40;;;1.80;;
30519;SDS011;17300;50.374;8.006;2023-08-06T00:05:51;2.00;;;1.80;;
30519;SDS011;17300;50.374;8.006;2023-08-06T00:08:18;2.80;;;1.93;;
30519;SDS011;17300;50.374;8.006;2023-08-06T00:10:48;3.10;;;2.00;;
30519;SDS011;17300;50.374;8.006;2023-08-06T00:13:14;2.53;;;1.83;;
30519;SDS011;17300;50.374;8.006;2023-08-06T00:15:41;2.20;;;1.90;;
30519;SDS011;17300;50.374;8.006;2023-08-06T00:18:08;2.00;;;1.83;;
30519;SDS011;17300;50.374;8.006;2023-08-06T00:20:34;1.87;;;1.77;;
30519;SDS011;17300;50.374;8.006;2023-08-06T00:23:01;1.83;;;1.73;;
30519;SDS011;17300;50.374;8.006;2023-08-06T00:25:28;2.97;;;2.00;;
30519;SDS011;17300;50.374;8.006;2023-08-06T00:27:56;2.10;;;1.93;;
30519;SDS011;17300;50.374;8.006;2023-08-06T00:30:22;3.10;;;2.00;;
30519;SDS011;17300;50.374;8.006;2023-08-06T00:32:49;2.30;;;2.10;;
30519;SDS011;17300;50.374;8.006;2023-08-06T00:35:16;3.00;;;1.83;;
30519;SDS011;17300;50.374;8.006;2023-08-06T00:37:42;2.87;;;2.00;;
30519;SDS011;17300;50.374;8.006;2023-08-06T00:40:09;1.90;;;1.80;;
30519;SDS011;17300;50.374;8.006;2023-08-06T00:42:36;2.27;;;1.60;;
30519;SDS011;17300;50.374;8.006;2023-08-06T00:45:04;2.00;;;1.80;;
30519;SDS011;17300;50.374;8.006;2023-08-06T00:47:31;1.70;;;1.60;;
30519;SDS011;17300;50.374;8.006;2023-08-06T00:49:58;2.00;;;1.90;;
30519;SDS011;17300;50.374;8.006;2023-08-06T00:52:25;1.60;;;1.50;;
30519;SDS011;17300;50.374;8.006;2023-08-06T00:54:52;1.60;;;1.50;;
30519;SDS011;17300;50.374;8.006;2023-08-06T00:57:18;1.70;;;1.60;;
30519;SDS011;17300;50.374;8.006;2023-08-06T00:59:47;1.90;;;1.70;;
30519;SDS011;17300;50.374;8.006;2023-08-06T01:02:16;1.80;;;1.60;;
30519;SDS011;17300;50.374;8.006;2023-08-06T01:04:43;1.60;;;1.50;;
30519;SDS011;17300;50.374;8.006;2023-08-06T01:07:12;1.90;;;1.80;;
30519;SDS011;17300;50.374;8.006;2023-08-06T01:09:48;2.03;;;1.70;;
30519;SDS011;17300;50.374;8.006;2023-08-06T01:12:21;3.13;;;1.57;;
30519;SDS011;17300;50.374;8.006;2023-08-06T01:15:00;1.53;;;1.43;;
30519;SDS011;17300;50.374;8.006;2023-08-06T01:17:34;1.40;;;1.30;;
30519;SDS011;17300;50.374;8.006;2023-08-06T01:20:02;1.60;;;1.50;;
30519;SDS011;17300;50.374;8.006;2023-08-06T01:22:31;1.90;;;1.80;;
30519;SDS011;17300;50.374;8.006;2023-08-06T01:24:57;1.70;;;1.60;;
30519;SDS011;17300;50.374;8.006;2023-08-06T01:27:26;1.70;;;1.60;;
30519;SDS011;17300;50.374;8.006;2023-08-06T01:29:57;1.77;;;1.67;;
30519;SDS011;17300;50.374;8.006;2023-08-06T01:32:29;1.70;;;1.60;;
30519;SDS011;17300;50.374;8.006;2023-08-06T01:35:00;3.40;;;1.90;;
30519;SDS011;17300;50.374;8.006;2023-08-06T01:37:28;5.63;;;1.90;;
30519;SDS011;17300;50.374;8.006;2023-08-06T01:39:56;2.70;;;1.60;;
30519;SDS011;17300;50.374;8.006;2023-08-06T01:42:23;1.73;;;1.50;;
30519;SDS011;17300;50.374;8.006;2023-08-06T01:44:50;1.87;;;1.50;;
30519;SDS011;17300;50.374;8.006;2023-08-06T01:47:17;2.90;;;1.70;;
30519;SDS011;17300;50.374;8.006;2023-08-06T01:49:43;2.63;;;1.53;;
30519;SDS011;17300;50.374;8.006;2023-08-06T01:52:10;1.87;;;1.50;;
30519;SDS011;17300;50.374;8.006;2023-08-06T01:54:37;1.77;;;1.60;;
30519;SDS011;17300;50.374;8.006;2023-08-06T01:57:05;1.80;;;1.70;;
30519;SDS011;17300;50.374;8.006;2023-08-06T01:59:32;1.70;;;1.60;;
30519;SDS011;17300;50.374;8.006;2023-08-06T02:01:58;2.50;;;1.47;;
30519;SDS011;17300;50.374;8.006;2023-08-06T02:04:25;1.77;;;1.67;;
30519;SDS011;17300;50.374;8.006;2023-08-06T02:06:52;2.03;;;1.60;;
30519;SDS011;17300;50.374;8.006;2023-08-06T02:09:18;2.50;;;1.70;;
30519;SDS011;17300;50.374;8.006;2023-08-06T02:11:45;1.67;;;1.57;;
30519;SDS011;17300;50.374;8.006;2023-08-06T02:14:13;1.77;;;1.63;;
30519;SDS011;17300;50.374;8.006;2023-08-06T02:16:40;1.50;;;1.40;;
30519;SDS011;17300;50.374;8.006;2023-08-06T02:19:06;1.43;;;1.33;;
30519;SDS011;17300;50.374;8.006;2023-08-06T02:21:33;1.60;;;1.40;;
30519;SDS011;17300;50.374;8.006;2023-08-06T02:24:00;1.67;;;1.53;;
30519;SDS011;17300;50.374;8.006;2023-08-06T02:26:26;2.53;;;1.67;;
30519;SDS011;17300;50.374;8.006;2023-08-06T02:28:53;2.63;;;1.43;;
30519;SDS011;17300;50.374;8.006;2023-08-06T02:31:21;1.50;;;1.40;;
30519;SDS011;17300;50.374;8.006;2023-08-06T02:33:48;1.60;;;1.50;;
30519;SDS011;17300;50.374;8.006;2023-08-06T02:36:14;2.20;;;1.80;;
30519;SDS011;17300;50.374;8.006;2023-08-06T02:38:41;1.70;;;1.57;;
30519;SDS011;17300;50.374;8.006;2023-08-06T02:41:08;1.73;;;1.63;;
30519;SDS011;17300;50.374;8.006;2023-08-06T02:43:34;1.47;;;1.30;;
30519;SDS011;17300;50.374;8.006;2023-08-06T02:46:01;1.67;;;1.50;;
30519;SDS011;17300;50.374;8.006;2023-08-06T02:48:29;1.50;;;1.40;;
30519;SDS011;17300;50.374;8.006;2023-08-06T02:50:59;2.63;;;1.40;;
30519;SDS011;17300;50.374;8.006;2023-08-06T02:53:26;1.70;;;1.60;;
30519;SDS011;17300;50.374;8.006;2023-08-06T02:55:52;1.50;;;1.40;;
30519;SDS011;17300;50.374;8.006;2023-08-06T02:58:19;2.07;;;1.60;;
30519;SDS011;17300;50.374;8.006;2023-08-06T03:00:47;1.60;;;1.50;;
30519;SDS011;17300;50.374;8.006;2023-08-06T03:03:25;1.73;;;1.50;;
30519;SDS011;17300;50.374;8.006;2023-08-06T03:05:53;2.23;;;1.73;;
30519;SDS011;17300;50.374;8.006;2023-08-06T03:08:20;1.70;;;1.60;;
30519;SDS011;17300;50.374;8.006;2023-08-06T03:10:47;1.40;;;1.30;;
30519;SDS011;17300;50.374;8.006;2023-08-06T03:13:14;1.47;;;1.37;;
30519;SDS011;17300;50.374;8.006;2023-08-06T03:15:41;2.40;;;1.20;;
30519;SDS011;17300;50.374;8.006;2023-08-06T03:18:07;1.90;;;1.80;;
30519;SDS011;17300;50.374;8.006;2023-08-06T03:20:34;1.70;;;1.60;;
30519;SDS011;17300;50.374;8.006;2023-08-06T03:23:02;1.60;;;1.50;;
30519;SDS011;17300;50.374;8.006;2023-08-06T03:25:29;1.47;;;1.37;;
30519;SDS011;17300;50.374;8.006;2023-08-06T03:27:55;1.77;;;1.67;;
30519;SDS011;17300;50.374;8.006;2023-08-06T03:30:22;2.03;;;1.90;;
30519;SDS011;17300;50.374;8.006;2023-08-06T03:32:48;1.70;;;1.57;;
30519;SDS011;17300;50.374;8.006;2023-08-06T03:35:15;2.00;;;1.80;;
30519;SDS011;17300;50.374;8.006;2023-08-06T03:37:42;3.20;;;1.57;;
30519;SDS011;17300;50.374;8.006;2023-08-06T03:40:10;1.50;;;1.37;;
30519;SDS011;17300;50.374;8.006;2023-08-06T03:42:37;1.80;;;1.60;;
30519;SDS011;17300;50.374;8.006;2023-08-06T03:45:04;1.87;;;1.40;;
30519;SDS011;17300;50.374;8.006;2023-08-06T03:47:31;1.60;;;1.50;;
30519;SDS011;17300;50.374;8.006;2023-08-06T03:49:58;1.60;;;1.50;;
30519;SDS011;17300;50.374;8.006;2023-08-06T03:52:25;1.50;;;1.40;;
30519;SDS011;17300;50.374;8.006;2023-08-06T03:54:51;1.90;;;1.33;;
30519;SDS011;17300;50.374;8.006;2023-08-06T03:57:19;1.40;;;1.30;;
30519;SDS011;17300;50.374;8.006;2023-08-06T03:59:46;1.50;;;1.40;;
30519;SDS011;17300;50.374;8.006;2023-08-06T04:02:12;1.67;;;1.57;;
30519;SDS011;17300;50.374;8.006;2023-08-06T04:04:39;3.60;;;1.63;;
30519;SDS011;17300;50.374;8.006;2023-08-06T04:07:06;2.07;;;1.70;;
30519;SDS011;17300;50.374;8.006;2023-08-06T04:09:32;1.63;;;1.53;;
30519;SDS011;17300;50.374;8.006;2023-08-06T04:11:59;1.90;;;1.80;;
30519;SDS011;17300;50.374;8.006;2023-08-06T04:14:29;2.23;;;1.60;;
30519;SDS011;17300;50.374;8.006;2023-08-06T04:16:55;1.83;;;1.60;;
30519;SDS011;17300;50.374;8.006;2023-08-06T04:19:22;2.43;;;1.80;;
30519;SDS011;17300;50.374;8.006;2023-08-06T04:21:49;3.30;;;1.77;;
30519;SDS011;17300;50.374;8.006;2023-08-06T04:24:16;2.63;;;1.80;;
30519;SDS011;17300;50.374;8.006;2023-08-06T04:26:42;1.90;;;1.80;;
30519;SDS011;17300;50.374;8.006;2023-08-06T04:29:09;1.63;;;1.53;;
30519;SDS011;17300;50.374;8.006;2023-08-06T04:31:37;3.00;;;2.30;;
30519;SDS011;17300;50.374;8.006;2023-08-06T04:34:04;2.40;;;2.17;;
30519;SDS011;17300;50.374;8.006;2023-08-06T04:36:31;2.70;;;2.00;;
30519;SDS011;17300;50.374;8.006;2023-08-06T04:38:57;1.87;;;1.77;;
30519;SDS011;17300;50.374;8.006;2023-08-06T04:41:24;1.70;;;1.60;;
30519;SDS011;17300;50.374;8.006;2023-08-06T04:43:51;3.63;;;1.97;;
30519;SDS011;17300;50.374;8.006;2023-08-06T04:46:17;3.47;;;2.20;;
30519;SDS011;17300;50.374;8.006;2023-08-06T04:48:45;2.30;;;1.90;;
30519;SDS011;17300;50.374;8.006;2023-08-06T04:51:12;1.97;;;1.67;;
30519;SDS011;17300;50.374;8.006;2023-08-06T04:53:40;3.50;;;1.90;;
30519;SDS011;17300;50.374;8.006;2023-08-06T04:56:07;2.17;;;1.80;;
30519;SDS011;17300;50.374;8.006;2023-08-06T04:58:33;2.20;;;1.77;;
30519;SDS011;17300;50.374;8.006;2023-08-06T05:01:00;1.83;;;1.50;;
30519;SDS011;17300;50.374;8.006;2023-08-06T05:03:27;1.60;;;1.50;;
30519;SDS011;17300;50.374;8.006;2023-08-06T05:05:55;1.97;;;1.70;;
30519;SDS011;17300;50.374;8.006;2023-08-06T05:08:21;1.67;;;1.57;;
30519;SDS011;17300;50.374;8.006;2023-08-06T05:10:48;1.63;;;1.23;;
30519;SDS011;17300;50.374;8.006;2023-08-06T05:13:15;1.30;;;1.20;;
30519;SDS011;17300;50.374;8.006;2023-08-06T05:15:41;2.10;;;1.60;;
30519;SDS011;17300;50.374;8.006;2023-08-06T05:18:10;1.67;;;1.43;;
30519;SDS011;17300;50.374;8.006;2023-08-06T05:20:37;1.70;;;1.30;;
30519;SDS011;17300;50.374;8.006;2023-08-06T05:23:06;1.50;;;1.40;;
30519;SDS011;17300;50.374;8.006;2023-08-06T05:25:34;2.30;;;1.20;;
30519;SDS011;17300;50.374;8.006;2023-08-06T05:28:01;1.30;;;1.20;;
30519;SDS011;17300;50.374;8.006;2023-08-06T05:30:27;1.50;;;1.37;;
30519;SDS011;17300;50.374;8.006;2023-08-06T05:32:54;2.00;;;1.20;;
30519;SDS011;17300;50.374;8.006;2023-08-06T05:35:21;1.23;;;1.10;;
30519;SDS011;17300;50.374;8.006;2023-08-06T05:37:48;1.83;;;1.50;;
30519;SDS011;17300;50.374;8.006;2023-08-06T05:40:17;1.30;;;1.20;;
30519;SDS011;17300;50.374;8.006;2023-08-06T05:42:44;8.07;;;1.77;;
30519;SDS011;17300;50.374;8.006;2023-08-06T05:45:10;1.67;;;1.20;;
30519;SDS011;17300;50.374;8.006;2023-08-06T05:47:37;1.20;;;1.10;;
30519;SDS011;17300;50.374;8.006;2023-08-06T05:50:04;2.20;;;1.20;;
30519;SDS011;17300;50.374;8.006;2023-08-06T05:52:31;1.43;;;1.33;;
30519;SDS011;17300;50.374;8.006;2023-08-06T05:54:58;1.73;;;1.50;;
30519;SDS011;17300;50.374;8.006;2023-08-06T05:57:26;1.57;;;1.20;;
30519;SDS011;17300;50.374;8.006;2023-08-06T05:59:52;1.43;;;1.20;;
30519;SDS011;17300;50.374;8.006;2023-08-06T06:02:19;2.43;;;1.50;;
30519;SDS011;17300;50.374;8.006;2023-08-06T06:04:46;1.60;;;1.27;;
30519;SDS011;17300;50.374;8.006;2023-08-06T06:07:12;1.67;;;1.30;;
30519;SDS011;17300;50.374;8.006;2023-08-06T06:09:39;1.20;;;1.10;;
30519;SDS011;17300;50.374;8.006;2023-08-06T06:12:06;1.37;;;1.00;;
30519;SDS011;17300;50.374;8.006;2023-08-06T06:14:34;0.90;;;0.90;;
30519;SDS011;17300;50.374;8.006;2023-08-06T06:17:01;1.40;;;1.00;;
30519;SDS011;17300;50.374;8.006;2023-08-06T06:19:27;0.87;;;0.80;;
30519;SDS011;17300;50.374;8.006;2023-08-06T06:21:54;0.80;;;0.80;;
30519;SDS011;17300;50.374;8.006;2023-08-06T06:24:22;0.70;;;0.70;;
30519;SDS011;17300;50.374;8.006;2023-08-06T06:26:49;0.73;;;0.73;;
30519;SDS011;17300;50.374;8.006;2023-08-06T06:29:15;0.70;;;0.70;;
30519;SDS011;17300;50.374;8.006;2023-08-06T06:31:43;0.73;;;0.73;;
30519;SDS011;17300;50.374;8.006;2023-08-06T06:34:10;0.77;;;0.67;;
30519;SDS011;17300;50.374;8.006;2023-08-06T06:36:37;1.37;;;0.60;;
30519;SDS011;17300;50.374;8.006;2023-08-06T06:39:04;0.80;;;0.80;;
30519;SDS011;17300;50.374;8.006;2023-08-06T06:41:31;0.60;;;0.60;;
30519;SDS011;17300;50.374;8.006;2023-08-06T06:43:58;0.80;;;0.80;;
30519;SDS011;17300;50.374;8.006;2023-08-06T06:46:24;0.77;;;0.70;;
30519;SDS011;17300;50.374;8.006;2023-08-06T06:48:52;1.40;;;0.60;;
30519;SDS011;17300;50.374;8.006;2023-08-06T06:51:19;0.87;;;0.70;;
30519;SDS011;17300;50.374;8.006;2023-08-06T06:53:46;0.60;;;0.40;;
30519;SDS011;17300;50.374;8.006;2023-08-06T06:56:12;0.73;;;0.40;;
30519;SDS011;17300;50.374;8.006;2023-08-06T06:58:39;0.60;;;0.50;;
30519;SDS011;17300;50.374;8.006;2023-08-06T07:01:06;0.60;;;0.60;;
30519;SDS011;17300;50.374;8.006;2023-08-06T07:03:34;0.57;;;0.57;;
30519;SDS011;17300;50.374;8.006;2023-08-06T07:06:03;0.97;;;0.40;;
30519;SDS011;17300;50.374;8.006;2023-08-06T07:08:30;0.37;;;0.37;;
30519;SDS011;17300;50.374;8.006;2023-08-06T07:11:01;0.57;;;0.30;;
30519;SDS011;17300;50.374;8.006;2023-08-06T07:13:28;1.37;;;0.53;;
30519;SDS011;17300;50.374;8.006;2023-08-06T07:15:55;0.70;;;0.40;;
30519;SDS011;17300;50.374;8.006;2023-08-06T07:18:21;0.40;;;0.40;;
30519;SDS011;17300;50.374;8.006;2023-08-06T07:20:48;0.30;;;0.30;;
30519;SDS011;17300;50.374;8.006;2023-08-06T07:23:16;0.37;;;0.37;;
30519;SDS011;17300;50.374;8.006;2023-08-06T07:25:43;0.30;;;0.30;;
30519;SDS011;17300;50.374;8.006;2023-08-06T07:28:10;1.60;;;0.30;;
30519;SDS011;17300;50.374;8.006;2023-08-06T07:30:38;0.30;;;0.30;;
30519;SDS011;17300;50.374;8.006;2023-08-06T07:33:05;0.47;;;0.30;;
30519;SDS011;17300;50.374;8.006;2023-08-06T07:35:31;0.43;;;0.40;;
30519;SDS011;17300;50.374;8.006;2023-08-06T07:37:58;0.40;;;0.40;;
30519;SDS011;17300;50.374;8.006;2023-08-06T07:40:27;0.20;;;0.20;;
30519;SDS011;17300;50.374;8.006;2023-08-06T07:42:54;0.40;;;0.40;;
30519;SDS011;17300;50.374;8.006;2023-08-06T07:45:21;0.82;;;0.40;;
30519;SDS011;17300;50.374;8.006;2023-08-06T07:47:47;0.55;;;0.30;;
30519;SDS011;17300;50.374;8.006;2023-08-06T07:50:14;0.52;;;0.30;;
30519;SDS011;17300;50.374;8.006;2023-08-06T07:52:41;0.20;;;0.20;;
30519;SDS011;17300;50.374;8.006;2023-08-06T07:55:07;0.32;;;0.30;;
30519;SDS011;17300;50.374;8.006;2023-08-06T07:57:35;0.30;;;0.30;;
30519;SDS011;17300;50.374;8.006;2023-08-06T08:00:03;0.30;;;0.30;;
30519;SDS011;17300;50.374;8.006;2023-08-06T08:02:31;0.40;;;0.40;;
30519;SDS011;17300;50.374;8.006;2023-08-06T08:04:57;0.52;;;0.32;;
30519;SDS011;17300;50.374;8.006;2023-08-06T08:07:24;0.55;;;0.30;;
30519;SDS011;17300;50.374;8.006;2023-08-06T08:09:53;0.30;;;0.30;;
30519;SDS011;17300;50.374;8.006;2023-08-06T08:12:20;0.30;;;0.30;;
30519;SDS011;17300;50.374;8.006;2023-08-06T08:14:48;0.30;;;0.30;;
30519;SDS011;17300;50.374;8.006;2023-08-06T08:17:14;1.23;;;0.65;;
30519;SDS011;17300;50.374;8.006;2023-08-06T08:19:41;0.73;;;0.70;;
30519;SDS011;17300;50.374;8.006;2023-08-06T08:22:08;0.50;;;0.50;;
30519;SDS011;17300;50.374;8.006;2023-08-06T08:24:34;0.35;;;0.35;;
30519;SDS011;17300;50.374;8.006;2023-08-06T08:27:01;0.20;;;0.20;;
30519;SDS011;17300;50.374;8.006;2023-08-06T08:29:28;0.20;;;0.20;;
30519;SDS011;17300;50.374;8.006;2023-08-06T08:31:56;1.85;;;0.47;;
30519;SDS011;17300;50.374;8.006;2023-08-06T08:34:22;0.30;;;0.30;;
30519;SDS011;17300;50.374;8.006;2023-08-06T08:36:49;1.42;;;0.50;;
30519;SDS011;17300;50.374;8.006;2023-08-06T08:39:16;0.40;;;0.40;;
30519;SDS011;17300;50.374;8.006;2023-08-06T08:41:43;0.57;;;0.40;;
30519;SDS011;17300;50.374;8.006;2023-08-06T08:44:09;0.88;;;0.50;;
30519;SDS011;17300;50.374;8.006;2023-08-06T08:46:37;0.30;;;0.30;;
30519;SDS011;17300;50.374;8.006;2023-08-06T08:49:07;0.47;;;0.47;;
30519;SDS011;17300;50.374;8.006;2023-08-06T08:51:34;0.40;;;0.40;;
30519;SDS011;17300;50.374;8.006;2023-08-06T08:54:02;0.20;;;0.20;;
30519;SDS011;17300;50.374;8.006;2023-08-06T08:56:29;0.22;;;0.22;;
30519;SDS011;17300;50.374;8.006;2023-08-06T08:58:56;0.30;;;0.30;;
30519;SDS011;17300;50.374;8.006;2023-08-06T09:01:23;0.20;;;0.20;;
30519;SDS011;17300;50.374;8.006;2023-08-06T09:03:51;0.13;;;0.13;;
30519;SDS011;17300;50.374;8.006;2023-08-06T09:06:20;0.20;;;0.20;;
30519;SDS011;17300;50.374;8.006;2023-08-06T09:08:50;1.05;;;0.20;;
30519;SDS011;17300;50.374;8.006;2023-08-06T09:11:25;0.20;;;0.20;;
30519;SDS011;17300;50.374;8.006;2023-08-06T09:13:52;0.30;;;0.30;;
30519;SDS011;17300;50.374;8.006;2023-08-06T09:16:20;0.10;;;0.10;;
30519;SDS011;17300;50.374;8.006;2023-08-06T09:18:47;0.25;;;0.20;;
30519;SDS011;17300;50.374;8.006;2023-08-06T09:21:13;0.15;;;0.15;;
30519;SDS011;17300;50.374;8.006;2023-08-06T09:23:43;0.43;;;0.28;;
30519;SDS011;17300;50.374;8.006;2023-08-06T09:26:11;0.55;;;0.30;;
30519;SDS011;17300;50.374;8.006;2023-08-06T09:28:39;0.25;;;0.25;;
30519;SDS011;17300;50.374;8.006;2023-08-06T09:31:08;0.20;;;0.20;;
30519;SDS011;17300;50.374;8.006;2023-08-06T09:33:35;0.32;;;0.20;;
30519;SDS011;17300;50.374;8.006;2023-08-06T09:36:07;0.30;;;0.30;;
30519;SDS011;17300;50.374;8.006;2023-08-06T09:38:37;0.30;;;0.30;;
30519;SDS011;17300;50.374;8.006;2023-08-06T09:41:06;0.30;;;0.20;;
30519;SDS011;17300;50.374;8.006;2023-08-06T09:43:39;0.38;;;0.38;;
30519;SDS011;17300;50.374;8.006;2023-08-06T09:46:10;0.98;;;0.20;;
30519;SDS011;17300;50.374;8.006;2023-08-06T09:48:39;0.10;;;0.10;;
30519;SDS011;17300;50.374;8.006;2023-08-06T09:51:06;0.20;;;0.20;;
30519;SDS011;17300;50.374;8.006;2023-08-06T09:53:34;0.38;;;0.30;;
30519;SDS011;17300;50.374;8.006;2023-08-06T09:56:03;0.20;;;0.20;;
30519;SDS011;17300;50.374;8.006;2023-08-06T09:58:31;0.20;;;0.20;;
30519;SDS011;17300;50.374;8.006;2023-08-06T10:00:58;0.30;;;0.30;;
30519;SDS011;17300;50.374;8.006;2023-08-06T10:03:26;0.30;;;0.30;;
30519;SDS011;17300;50.374;8.006;2023-08-06T10:05:55;0.20;;;0.20;;
30519;SDS011;17300;50.374;8.006;2023-08-06T10:08:22;0.25;;;0.25;;
30519;SDS011;17300;50.374;8.006;2023-08-06T10:10:49;0.30;;;0.30;;
30519;SDS011;17300;50.374;8.006;2023-08-06T10:13:16;0.30;;;0.30;;
30519;SDS011;17300;50.374;8.006;2023-08-06T10:15:45;0.88;;;0.20;;
30519;SDS011;17300;50.374;8.006;2023-08-06T10:18:12;0.47;;;0.30;;
30519;SDS011;17300;50.374;8.006;2023-08-06T10:20:43;0.20;;;0.20;;
30519;SDS011;17300;50.374;8.006;2023-08-06T10:23:09;0.25;;;0.25;;
30519;SDS011;17300;50.374;8.006;2023-08-06T10:25:40;0.28;;;0.28;;
30519;SDS011;17300;50.374;8.006;2023-08-06T10:28:07;0.20;;;0.20;;
30519;SDS011;17300;50.374;8.006;2023-08-06T10:30:41;0.90;;;0.25;;
30519;SDS011;17300;50.374;8.006;2023-08-06T10:33:09;0.45;;;0.30;;
30519;SDS011;17300;50.374;8.006;2023-08-06T10:35:36;3.15;;;0.93;;
30519;SDS011;17300;50.374;8.006;2023-08-06T10:38:08;0.75;;;0.63;;
30519;SDS011;17300;50.374;8.006;2023-08-06T10:40:36;0.88;;;0.60;;
30519;SDS011;17300;50.374;8.006;2023-08-06T10:43:05;1.20;;;0.60;;
30519;SDS011;17300;50.374;8.006;2023-08-06T10:45:36;1.33;;;0.80;;
30519;SDS011;17300;50.374;8.006;2023-08-06T10:48:04;0.77;;;0.60;;
30519;SDS011;17300;50.374;8.006;2023-08-06T10:50:32;0.80;;;0.50;;
30519;SDS011;17300;50.374;8.006;2023-08-06T10:53:03;0.55;;;0.50;;
30519;SDS011;17300;50.374;8.006;2023-08-06T10:55:31;0.30;;;0.30;;
30519;SDS011;17300;50.374;8.006;2023-08-06T10:57:58;0.15;;;0.15;;
30519;SDS011;17300;50.374;8.006;2023-08-06T11:00:25;0.30;;;0.20;;
30519;SDS011;17300;50.374;8.006;2023-08-06T11:02:52;0.40;;;0.40;;
30519;SDS011;17300;50.374;8.006;2023-08-06T11:05:19;0.10;;;0.10;;
30519;SDS011;17300;50.374;8.006;2023-08-06T11:07:47;0.55;;;0.10;;
30519;SDS011;17300;50.374;8.006;2023-08-06T11:10:16;0.10;;;0.10;;
30519;SDS011;17300;50.374;8.006;2023-08-06T11:12:43;0.15;;;0.10;;
30519;SDS011;17300;50.374;8.006;2023-08-06T11:15:10;0.40;;;0.20;;
30519;SDS011;17300;50.374;8.006;2023-08-06T11:17:36;0.30;;;0.13;;
30519;SDS011;17300;50.374;8.006;2023-08-06T11:20:06;0.10;;;0.10;;
30519;SDS011;17300;50.374;8.006;2023-08-06T11:22:33;0.10;;;0.10;;
30519;SDS011;17300;50.374;8.006;2023-08-06T11:25:09;0.10;;;0.10;;
30519;SDS011;17300;50.374;8.006;2023-08-06T11:27:36;0.30;;;0.13;;
30519;SDS011;17300;50.374;8.006;2023-08-06T11:30:03;0.10;;;0.10;;
30519;SDS011;17300;50.374;8.006;2023-08-06T11:32:30;0.57;;;0.20;;
30519;SDS011;17300;50.374;8.006;2023-08-06T11:34:58;0.20;;;0.20;;
30519;SDS011;17300;50.374;8.006;2023-08-06T11:37:35;0.30;;;0.20;;
30519;SDS011;17300;50.374;8.006;2023-08-06T11:40:05;0.47;;;0.30;;
30519;SDS011;17300;50.374;8.006;2023-08-06T11:42:37;0.33;;;0.30;;
30519;SDS011;17300;50.374;8.006;2023-08-06T11:45:04;0.30;;;0.30;;
30519;SDS011;17300;50.374;8.006;2023-08-06T11:47:31;0.37;;;0.20;;
30519;SDS011;17300;50.374;8.006;2023-08-06T11:49:58;0.30;;;0.30;;
30519;SDS011;17300;50.374;8.006;2023-08-06T11:52:25;0.40;;;0.30;;
30519;SDS011;17300;50.374;8.006;2023-08-06T11:55:02;1.60;;;0.20;;
30519;SDS011;17300;50.374;8.006;2023-08-06T11:57:33;0.30;;;0.30;;
30519;SDS011;17300;50.374;8.006;2023-08-06T12:00:03;0.30;;;0.30;;
30519;SDS011;17300;50.374;8.006;2023-08-06T12:02:31;0.30;;;0.30;;
30519;SDS011;17300;50.374;8.006;2023-08-06T12:05:02;0.30;;;0.27;;
30519;SDS011;17300;50.374;8.006;2023-08-06T12:07:30;0.40;;;0.40;;
30519;SDS011;17300;50.374;8.006;2023-08-06T12:09:58;0.57;;;0.40;;
30519;SDS011;17300;50.374;8.006;2023-08-06T12:12:26;0.30;;;0.30;;
30519;SDS011;17300;50.374;8.006;2023-08-06T12:14:54;0.43;;;0.37;;
30519;SDS011;17300;50.374;8.006;2023-08-06T12:17:21;0.40;;;0.40;;
30519;SDS011;17300;50.374;8.006;2023-08-06T12:19:47;0.40;;;0.40;;
30519;SDS011;17300;50.374;8.006;2023-08-06T12:22:14;0.50;;;0.40;;
30519;SDS011;17300;50.374;8.006;2023-08-06T12:24:41;0.40;;;0.30;;
30519;SDS011;17300;50.374;8.006;2023-08-06T12:27:08;0.30;;;0.30;;
30519;SDS011;17300;50.374;8.006;2023-08-06T12:29:36;0.30;;;0.30;;
30519;SDS011;17300;50.374;8.006;2023-08-06T12:32:03;0.50;;;0.40;;
30519;SDS011;17300;50.374;8.006;2023-08-06T12:34:30;0.53;;;0.50;;
30519;SDS011;17300;50.374;8.006;2023-08-06T12:36:57;0.73;;;0.40;;
30519;SDS011;17300;50.374;8.006;2023-08-06T12:39:24;0.50;;;0.43;;
30519;SDS011;17300;50.374;8.006;2023-08-06T12:41:53;1.00;;;0.40;;
30519;SDS011;17300;50.374;8.006;2023-08-06T12:44:20;0.40;;;0.40;;
30519;SDS011;17300;50.374;8.006;2023-08-06T12:46:48;1.30;;;0.37;;
30519;SDS011;17300;50.374;8.006;2023-08-06T12:49:15;0.33;;;0.30;;
30519;SDS011;17300;50.374;8.006;2023-08-06T12:51:42;0.40;;;0.30;;
30519;SDS011;17300;50.374;8.006;2023-08-06T12:54:09;0.37;;;0.33;;
30519;SDS011;17300;50.374;8.006;2023-08-06T12:56:35;0.70;;;0.30;;
30519;SDS011;17300;50.374;8.006;2023-08-06T12:59:02;0.40;;;0.40;;
30519;SDS011;17300;50.374;8.006;2023-08-06T13:01:28;0.27;;;0.20;;
30519;SDS011;17300;50.374;8.006;2023-08-06T13:03:57;0.47;;;0.30;;
30519;SDS011;17300;50.374;8.006;2023-08-06T13:06:24;0.27;;;0.20;;
30519;SDS011;17300;50.374;8.006;2023-08-06T13:08:51;0.63;;;0.20;;
30519;SDS011;17300;50.374;8.006;2023-08-06T13:11:17;0.30;;;0.30;;
30519;SDS011;17300;50.374;8.006;2023-08-06T13:13:44;0.30;;;0.20;;
30519;SDS011;17300;50.374;8.006;2023-08-06T13:16:11;0.40;;;0.30;;
30519;SDS011;17300;50.374;8.006;2023-08-06T13:18:38;0.63;;;0.30;;
30519;SDS011;17300;50.374;8.006;2023-08-06T13:21:06;0.20;;;0.20;;
30519;SDS011;17300;50.374;8.006;2023-08-06T13:23:32;0.80;;;0.20;;
30519;SDS011;17300;50.374;8.006;2023-08-06T13:25:59;0.33;;;0.30;;
30519;SDS011;17300;50.374;8.006;2023-08-06T13:28:26;0.30;;;0.30;;
30519;SDS011;17300;50.374;8.006;2023-08-06T13:30:52;0.60;;;0.30;;
30519;SDS011;17300;50.374;8.006;2023-08-06T13:33:19;0.50;;;0.40;;
30519;SDS011;17300;50.374;8.006;2023-08-06T13:35:46;0.30;;;0.30;;
30519;SDS011;17300;50.374;8.006;2023-08-06T13:38:14;0.23;;;0.23;;
30519;SDS011;17300;50.374;8.006;2023-08-06T13:40:40;0.30;;;0.30;;
30519;SDS011;17300;50.374;8.006;2023-08-06T13:43:09;0.53;;;0.30;;
30519;SDS011;17300;50.374;8.006;2023-08-06T13:45:35;0.63;;;0.40;;
30519;SDS011;17300;50.374;8.006;2023-08-06T13:48:03;0.20;;;0.20;;
30519;SDS011;17300;50.374;8.006;2023-08-06T13:50:30;0.30;;;0.30;;
30519;SDS011;17300;50.374;8.006;2023-08-06T13:52:56;0.37;;;0.37;;
30519;SDS011;17300;50.374;8.006;2023-08-06T13:55:24;0.23;;;0.20;;
30519;SDS011;17300;50.374;8.006;2023-08-06T13:57:51;0.57;;;0.40;;
30519;SDS011;17300;50.374;8.006;2023-08-06T14:00:18;1.13;;;0.33;;
30519;SDS011;17300;50.374;8.006;2023-08-06T14:02:45;0.20;;;0.20;;
30519;SDS011;17300;50.374;8.006;2023-08-06T14:05:11;0.20;;;0.20;;
30519;SDS011;17300;50.374;8.006;2023-08-06T14:07:38;0.33;;;0.33;;
30519;SDS011;17300;50.374;8.006;2023-08-06T14:10:05;0.43;;;0.30;;
30519;SDS011;17300;50.374;8.006;2023-08-06T14:12:35;0.13;;;0.13;;
30519;SDS011;17300;50.374;8.006;2023-08-06T14:15:02;0.30;;;0.30;;
30519;SDS011;17300;50.374;8.006;2023-08-06T14:17:29;1.13;;;0.30;;
30519;SDS011;17300;50.374;8.006;2023-08-06T14:19:56;0.40;;;0.20;;
30519;SDS011;17300;50.374;8.006;2023-08-06T14:22:22;0.70;;;0.17;;
30519;SDS011;17300;50.374;8.006;2023-08-06T14:24:49;0.10;;;0.10;;
30519;SDS011;17300;50.374;8.006;2023-08-06T14:27:16;0.60;;;0.30;;
30519;SDS011;17300;50.374;8.006;2023-08-06T14:29:44;0.40;;;0.37;;
30519;SDS011;17300;50.374;8.006;2023-08-06T14:32:10;1.70;;;0.30;;
30519;SDS011;17300;50.374;8.006;2023-08-06T14:34:37;0.30;;;0.30;;
30519;SDS011;17300;50.374;8.006;2023-08-06T14:37:04;0.30;;;0.30;;
30519;SDS011;17300;50.374;8.006;2023-08-06T14:39:31;0.40;;;0.30;;
30519;SDS011;17300;50.374;8.006;2023-08-06T14:41:57;0.87;;;0.40;;
30519;SDS011;17300;50.374;8.006;2023-08-06T14:44:24;0.20;;;0.20;;
30519;SDS011;17300;50.374;8.006;2023-08-06T14:46:52;0.40;;;0.40;;
30519;SDS011;17300;50.374;8.006;2023-08-06T14:49:19;0.30;;;0.30;;